Time;durP1;ratioP1;P1;durP2;ratioP2;P2;SDS_P1;SDS_P2;PMS_P1;PMS_P2;Temp;Humidity;BMP_temperature;BMP_pressure;BME280_temperature;BME280_humidity;BME280_pressure;Samples;Min_cycle;Max_cycle;Signal;HPM_P1;HPM_P2
2023/07/21 00:01:40;;;;;;;6.73;6.53;;;20.10;44.00;;;;;;4865834;29;20502;-86
2023/07/21 00:04:08;;;;;;;6.90;6.60;;;20.10;44.30;;;;;;4882400;29;20473;-85
2023/07/21 00:06:36;;;;;;;6.30;6.10;;;20.10;43.40;;;;;;4882926;29;20464;-87
2023/07/21 00:09:07;;;;;;;7.03;6.53;;;20.10;46.00;;;;;;4885419;29;20504;-87
2023/07/21 00:11:38;;;;;;;7.63;7.23;;;20.00;61.30;;;;;;4873020;29;20490;-87
2023/07/21 00:14:07;;;;;;;7.80;7.60;;;20.10;47.60;;;;;;4870336;29;20474;-86
2023/07/21 00:16:35;;;;;;;8.50;8.00;;;20.10;46.30;;;;;;4888908;29;20463;-85
2023/07/21 00:19:04;;;;;;;8.60;8.30;;;20.10;48.10;;;;;;4892712;29;20505;-89
2023/07/21 00:21:34;;;;;;;8.23;7.93;;;20.10;47.60;;;;;;4889791;29;20551;-86
2023/07/21 00:24:03;;;;;;;7.90;7.70;;;20.10;48.80;;;;;;4887348;29;20480;-86
2023/07/21 00:26:35;;;;;;;8.70;8.30;;;20.10;47.60;;;;;;4885787;29;20471;-86
2023/07/21 00:29:04;;;;;;;8.63;8.23;;;20.10;47.90;;;;;;4874919;29;20850;-86
2023/07/21 00:31:32;;;;;;;8.30;8.10;;;20.10;49.20;;;;;;4889343;29;20491;-87
2023/07/21 00:34:04;;;;;;;7.90;7.60;;;20.10;48.00;;;;;;4887953;29;20513;-87
2023/07/21 00:36:33;;;;;;;8.40;7.87;;;20.10;48.10;;;;;;4887277;29;20550;-85
2023/07/21 00:39:03;;;;;;;7.87;7.67;;;20.10;47.80;;;;;;4886388;29;20482;-86
2023/07/21 00:41:32;;;;;;;7.90;7.60;;;20.00;47.00;;;;;;4871813;29;20458;-88
2023/07/21 00:44:01;;;;;;;8.33;7.93;;;20.00;47.70;;;;;;4875128;29;20463;-87
2023/07/21 00:46:30;;;;;;;8.03;7.83;;;20.10;47.60;;;;;;4883166;29;20562;-87
2023/07/21 00:48:59;;;;;;;8.97;8.73;;;20.10;49.40;;;;;;4879454;29;21025;-87
2023/07/21 00:51:27;;;;;;;8.00;7.70;;;20.00;47.30;;;;;;4884038;29;20499;-84
2023/07/21 00:53:56;;;;;;;8.63;8.13;;;20.10;46.40;;;;;;4884788;29;20481;-85
2023/07/21 00:56:25;;;;;;;8.00;7.50;;;20.10;45.70;;;;;;4886620;29;20447;-86
2023/07/21 00:59:00;;;;;;;7.73;7.53;;;20.20;47.70;;;;;;4883289;29;20478;-87
2023/07/21 01:01:29;;;;;;;8.93;8.63;;;20.10;46.80;;;;;;4885558;29;20451;-85
2023/07/21 01:04:00;;;;;;;7.57;7.27;;;20.10;51.10;;;;;;4885938;29;20476;-85
2023/07/21 01:06:28;;;;;;;7.77;7.43;;;20.00;51.60;;;;;;4882948;29;20578;-86
2023/07/21 01:08:58;;;;;;;7.57;7.37;;;20.00;52.10;;;;;;4879531;29;20576;-86
2023/07/21 01:11:28;;;;;;;7.63;7.43;;;20.00;52.90;;;;;;4885888;29;20498;-88
2023/07/21 01:14:02;;;;;;;7.70;7.30;;;19.90;54.20;;;;;;4881359;29;20471;-86
2023/07/21 01:16:37;;;;;;;8.10;7.60;;;20.00;48.50;;;;;;4883547;29;20466;-85
2023/07/21 01:19:09;;;;;;;6.77;6.50;;;20.00;46.80;;;;;;4882596;29;20914;-84
2023/07/21 01:21:46;;;;;;;7.20;7.00;;;20.10;47.90;;;;;;4882380;29;20546;-86
2023/07/21 01:24:22;;;;;;;6.90;6.70;;;20.10;61.90;;;;;;4881594;29;20466;-87
2023/07/21 01:26:54;;;;;;;7.33;6.80;;;20.10;47.00;;;;;;4882942;29;20471;-87
2023/07/21 01:29:24;;;;;;;7.17;6.87;;;20.00;46.40;;;;;;4884458;29;20541;-85
2023/07/21 01:31:53;;;;;;;6.87;6.67;;;20.00;46.10;;;;;;4884240;29;20487;-86
2023/07/21 01:34:23;;;;;;;6.77;6.57;;;20.00;46.10;;;;;;4881839;29;20459;-87
2023/07/21 01:36:51;;;;;;;6.77;6.57;;;20.00;43.90;;;;;;4882278;29;20467;-86
2023/07/21 01:39:20;;;;;;;6.80;6.60;;;20.00;43.80;;;;;;4883297;29;20483;-85
2023/07/21 01:41:49;;;;;;;6.90;6.70;;;20.10;45.40;;;;;;4883257;29;20464;-85
2023/07/21 01:44:21;;;;;;;7.10;6.90;;;20.10;49.50;;;;;;4884332;29;20463;-84
2023/07/21 01:46:51;;;;;;;7.37;7.07;;;20.00;49.50;;;;;;4883745;29;20460;-85
2023/07/21 01:49:20;;;;;;;7.70;7.40;;;19.90;51.40;;;;;;4881326;29;20582;-86
2023/07/21 01:51:49;;;;;;;7.33;7.03;;;19.80;52.20;;;;;;4884316;29;20943;-86
2023/07/21 01:54:25;;;;;;;8.40;8.00;;;19.80;51.70;;;;;;4880531;29;20813;-84
2023/07/21 01:56:58;;;;;;;7.90;7.40;;;19.80;51.60;;;;;;4881009;29;20459;-86
2023/07/21 01:59:28;;;;;;;7.90;7.40;;;19.80;51.60;;;;;;4883315;29;20563;-86
2023/07/21 02:01:57;;;;;;;8.60;7.80;;;19.70;51.80;;;;;;4882607;29;20451;-83
2023/07/21 02:04:26;;;;;;;7.43;7.17;;;19.60;52.60;;;;;;4885673;29;20467;-85
2023/07/21 02:06:57;;;;;;;7.77;7.57;;;19.60;53.50;;;;;;4887794;29;20968;-85
2023/07/21 02:09:25;;;;;;;8.80;8.43;;;19.60;54.10;;;;;;4884374;29;20625;-85
2023/07/21 02:11:53;;;;;;;8.13;7.70;;;19.50;51.70;;;;;;4862025;29;20488;-85
2023/07/21 02:14:22;;;;;;;8.07;7.80;;;19.50;53.00;;;;;;4883866;29;20455;-84
2023/07/21 02:16:52;;;;;;;8.10;7.90;;;19.50;51.90;;;;;;4881140;29;20471;-85
2023/07/21 02:19:20;;;;;;;8.40;8.10;;;19.50;52.60;;;;;;4884074;29;20470;-84
2023/07/21 02:21:48;;;;;;;8.23;8.03;;;19.50;52.20;;;;;;4878805;29;20459;-84
2023/07/21 02:24:17;;;;;;;8.37;8.07;;;19.40;52.20;;;;;;4885816;29;20467;-85
2023/07/21 02:26:45;;;;;;;8.30;7.90;;;19.40;51.60;;;;;;4881435;29;20464;-85
2023/07/21 02:29:13;;;;;;;7.87;7.67;;;19.40;51.10;;;;;;4882667;29;20485;-85
2023/07/21 02:31:42;;;;;;;7.80;7.60;;;19.40;52.50;;;;;;4879888;29;20488;-87
2023/07/21 02:34:12;;;;;;;8.40;8.10;;;19.50;53.90;;;;;;4879831;29;20462;-86
2023/07/21 02:36:40;;;;;;;8.33;8.10;;;19.50;54.70;;;;;;4883759;29;20554;-88
2023/07/21 02:39:08;;;;;;;9.10;8.70;;;19.40;55.40;;;;;;4885042;29;20491;-83
2023/07/21 02:41:37;;;;;;;8.40;8.20;;;19.50;57.50;;;;;;4884239;29;20466;-83
2023/07/21 02:44:05;;;;;;;9.27;8.77;;;19.40;57.00;;;;;;4885808;29;20474;-84
2023/07/21 02:46:33;;;;;;;8.80;8.50;;;19.40;56.80;;;;;;4888067;29;21002;-85
2023/07/21 02:49:02;;;;;;;9.10;8.80;;;19.30;57.90;;;;;;4888937;29;20482;-83
2023/07/21 02:51:32;;;;;;;9.20;8.90;;;19.40;59.60;;;;;;4881881;29;20510;-87
2023/07/21 02:54:01;;;;;;;9.20;8.90;;;19.40;57.90;;;;;;4881021;29;20652;-84
2023/07/21 02:56:30;;;;;;;9.13;8.83;;;19.30;59.10;;;;;;4882935;29;20464;-86
2023/07/21 02:59:00;;;;;;;9.40;9.10;;;19.30;60.00;;;;;;4883363;29;20938;-85
2023/07/21 03:01:29;;;;;;;9.50;9.20;;;19.30;63.40;;;;;;4880214;29;20459;-83
2023/07/21 03:03:57;;;;;;;9.87;9.57;;;19.20;64.10;;;;;;4884163;29;20820;-82
2023/07/21 03:06:30;;;;;;;9.57;9.27;;;19.20;67.10;;;;;;4881202;29;20478;-84
2023/07/21 03:09:00;;;;;;;9.70;9.40;;;19.20;67.20;;;;;;4885976;29;20514;-85
2023/07/21 03:11:28;;;;;;;10.13;9.50;;;19.10;66.80;;;;;;4881972;29;20489;-85
2023/07/21 03:13:57;;;;;;;9.33;9.13;;;19.10;68.60;;;;;;4884416;29;20462;-84
2023/07/21 03:16:25;;;;;;;9.33;9.03;;;19.00;66.30;;;;;;4869072;29;20470;-85
2023/07/21 03:18:53;;;;;;;9.17;8.87;;;19.00;66.80;;;;;;4885938;29;20560;-83
2023/07/21 03:21:22;;;;;;;9.90;9.40;;;18.90;69.80;;;;;;4887111;29;20466;-85
2023/07/21 03:23:50;;;;;;;9.97;9.67;;;19.00;71.30;;;;;;4889957;29;20467;-84
2023/07/21 03:26:20;;;;;;;10.13;9.73;;;18.90;71.10;;;;;;4888025;29;20961;-84
2023/07/21 03:28:48;;;;;;;9.67;9.37;;;19.00;69.80;;;;;;4883328;29;21074;-84
2023/07/21 03:31:17;;;;;;;9.93;9.60;;;19.00;69.80;;;;;;4869790;29;20502;-85
2023/07/21 03:33:45;;;;;;;9.47;9.07;;;19.00;70.20;;;;;;4866954;29;20497;-84
2023/07/21 03:36:13;;;;;;;9.27;9.07;;;19.00;71.30;;;;;;4885841;29;20466;-82
2023/07/21 03:38:42;;;;;;;9.60;9.30;;;18.90;71.90;;;;;;4882749;29;20497;-87
2023/07/21 03:41:11;;;;;;;9.53;9.23;;;18.90;72.10;;;;;;4871815;29;20467;-86
2023/07/21 03:43:41;;;;;;;9.73;9.33;;;18.90;73.10;;;;;;4882676;29;20470;-87
2023/07/21 03:46:09;;;;;;;9.70;9.40;;;18.90;74.40;;;;;;4885963;29;20543;-85
2023/07/21 03:48:37;;;;;;;9.63;9.37;;;18.90;75.90;;;;;;4882146;29;20486;-84
2023/07/21 03:51:07;;;;;;;9.50;9.10;;;18.90;76.70;;;;;;4884861;29;20944;-86
2023/07/21 03:53:35;;;;;;;9.57;9.27;;;18.90;78.20;;;;;;4882174;29;20478;-84
2023/07/21 03:56:05;;;;;;;9.60;9.30;;;18.90;78.30;;;;;;4882457;29;20486;-84
2023/07/21 03:58:33;;;;;;;9.77;9.43;;;18.80;78.80;;;;;;4886490;29;20509;-86
2023/07/21 04:01:04;;;;;;;10.00;9.50;;;18.80;93.90;;;;;;4878773;29;20554;-85
2023/07/21 04:03:33;;;;;;;9.83;9.30;;;18.70;79.00;;;;;;4866411;29;21335;-84
2023/07/21 04:06:07;;;;;;;9.30;9.10;;;18.70;80.00;;;;;;4883162;29;20559;-86
2023/07/21 04:08:36;;;;;;;10.03;9.63;;;18.70;81.00;;;;;;4883590;29;20486;-85
2023/07/21 04:11:04;;;;;;;9.70;9.40;;;18.70;81.40;;;;;;4882501;29;20486;-83
2023/07/21 04:13:32;;;;;;;10.47;10.07;;;18.80;83.70;;;;;;4884332;29;21021;-84
2023/07/21 04:16:01;;;;;;;10.20;9.90;;;18.60;83.00;;;;;;4874949;29;20469;-86
2023/07/21 04:18:31;;;;;;;10.47;9.97;;;18.70;85.60;;;;;;4884089;29;20506;-86
2023/07/21 04:21:01;;;;;;;10.10;9.90;;;18.70;87.70;;;;;;4884249;29;20459;-87
2023/07/21 04:23:29;;;;;;;10.03;9.73;;;18.70;88.50;;;;;;4886761;29;20949;-85
2023/07/21 04:25:58;;;;;;;13.70;12.80;;;18.70;90.60;;;;;;4886710;29;20465;-87
2023/07/21 04:28:26;;;;;;;10.97;10.60;;;18.70;91.40;;;;;;4883213;29;20511;-88
2023/07/21 04:30:56;;;;;;;10.73;10.33;;;18.70;91.80;;;;;;4886892;29;20458;-77
2023/07/21 04:33:24;;;;;;;10.63;10.30;;;18.80;93.10;;;;;;4879661;29;20496;-76
2023/07/21 04:35:53;;;;;;;11.37;10.87;;;18.70;92.90;;;;;;4880147;29;20517;-79
2023/07/21 04:38:22;;;;;;;11.30;10.80;;;18.70;99.90;;;;;;4880141;29;20583;-77
2023/07/21 04:40:50;;;;;;;10.60;10.20;;;18.70;96.30;;;;;;4881003;29;20459;-77
2023/07/21 04:43:18;;;;;;;10.90;10.50;;;18.70;95.90;;;;;;4879606;29;20455;-78
2023/07/21 04:45:46;;;;;;;10.77;10.47;;;18.80;97.40;;;;;;4881528;29;20455;-77
2023/07/21 04:48:15;;;;;;;11.00;10.50;;;18.80;98.50;;;;;;4883322;29;20544;-80
2023/07/21 04:50:43;;;;;;;10.80;10.30;;;18.80;97.60;;;;;;4881361;29;20851;-79
2023/07/21 04:53:13;;;;;;;11.10;10.50;;;18.70;97.30;;;;;;4870893;29;21141;-79
2023/07/21 04:55:41;;;;;;;10.60;10.17;;;18.70;98.10;;;;;;4877139;29;20939;-79
2023/07/21 04:58:09;;;;;;;11.77;11.07;;;18.70;97.70;;;;;;4877803;29;20858;-80
2023/07/21 05:00:37;;;;;;;10.33;10.03;;;18.70;98.00;;;;;;4878567;29;20531;-77
2023/07/21 05:03:05;;;;;;;11.80;11.23;;;18.70;98.90;;;;;;4885664;29;20950;-79
2023/07/21 05:05:35;;;;;;;11.27;10.67;;;18.80;99.30;;;;;;4880608;29;20458;-79
2023/07/21 05:08:03;;;;;;;11.57;11.17;;;18.90;99.90;;;;;;4883795;29;20500;-79
2023/07/21 05:10:35;;;;;;;11.90;11.50;;;19.00;99.90;;;;;;4882279;29;21846;-79
2023/07/21 05:13:05;;;;;;;12.37;11.60;;;19.00;99.90;;;;;;4874247;29;20866;-78
2023/07/21 05:15:35;;;;;;;10.90;10.60;;;19.00;99.90;;;;;;4883241;29;20466;-77
2023/07/21 05:18:03;;;;;;;11.10;10.70;;;19.00;98.20;;;;;;4883249;29;20491;-77
2023/07/21 05:20:31;;;;;;;11.53;11.10;;;19.00;98.50;;;;;;4880260;29;20770;-79
2023/07/21 05:22:59;;;;;;;12.50;12.00;;;19.00;98.00;;;;;;4861697;29;20882;-78
2023/07/21 05:25:30;;;;;;;11.07;10.70;;;19.00;96.80;;;;;;4879083;29;20226;-78
2023/07/21 05:27:59;;;;;;;11.77;11.37;;;19.00;96.90;;;;;;4874723;29;20996;-83
2023/07/21 05:30:28;;;;;;;11.10;10.70;;;19.10;97.40;;;;;;4862910;29;20459;-83
2023/07/21 05:32:56;;;;;;;11.10;10.80;;;19.20;96.70;;;;;;4884989;29;20483;-84
2023/07/21 05:35:26;;;;;;;11.73;11.23;;;19.30;97.50;;;;;;4880929;29;20759;-83
2023/07/21 05:37:55;;;;;;;11.17;10.80;;;19.30;98.10;;;;;;4881975;29;20899;-81
2023/07/21 05:40:23;;;;;;;11.87;11.37;;;19.30;97.70;;;;;;4882005;29;20501;-80
2023/07/21 05:42:51;;;;;;;11.50;10.90;;;19.30;97.10;;;;;;4882809;29;20475;-83
2023/07/21 05:45:21;;;;;;;12.20;11.70;;;19.30;97.00;;;;;;4885703;29;21028;-81
2023/07/21 05:47:51;;;;;;;12.30;11.70;;;19.40;97.90;;;;;;4886810;29;20474;-82
2023/07/21 05:50:19;;;;;;;12.63;12.00;;;19.50;97.20;;;;;;4884677;29;20471;-85
2023/07/21 05:52:50;;;;;;;11.90;11.20;;;19.50;98.50;;;;;;4880442;29;20526;-83
2023/07/21 05:55:18;;;;;;;11.80;11.40;;;19.60;96.50;;;;;;4882871;29;20618;-82
2023/07/21 05:57:46;;;;;;;11.77;11.20;;;19.70;95.30;;;;;;4868931;29;20464;-81
2023/07/21 06:00:15;;;;;;;11.97;11.53;;;19.60;95.20;;;;;;4879132;29;20214;-82
2023/07/21 06:02:45;;;;;;;12.10;11.60;;;19.80;98.40;;;;;;4884663;29;20472;-82
2023/07/21 06:05:14;;;;;;;11.57;11.00;;;19.90;96.00;;;;;;4882263;29;20790;-80
2023/07/21 06:07:43;;;;;;;13.00;12.50;;;20.00;97.50;;;;;;4882753;29;20547;-85
2023/07/21 06:10:13;;;;;;;13.38;12.50;;;20.10;96.30;;;;;;4879788;29;20564;-82
2023/07/21 06:12:41;;;;;;;12.50;11.57;;;20.10;95.30;;;;;;4884387;29;20203;-84
2023/07/21 06:15:10;;;;;;;11.80;11.20;;;20.20;96.40;;;;;;4883036;29;20470;-84
2023/07/21 06:17:39;;;;;;;15.80;11.70;;;20.30;95.90;;;;;;4882724;29;20492;-82
2023/07/21 06:20:10;;;;;;;11.83;11.27;;;20.40;94.90;;;;;;4882950;29;20479;-83
2023/07/21 06:22:39;;;;;;;12.03;11.43;;;20.50;94.40;;;;;;4882855;29;20464;-81
2023/07/21 06:25:07;;;;;;;12.00;11.50;;;20.50;93.20;;;;;;4882583;29;20519;-82
2023/07/21 06:27:39;;;;;;;12.67;12.00;;;20.50;99.90;;;;;;4884004;29;20397;-80
2023/07/21 06:30:08;;;;;;;11.83;11.20;;;20.60;92.10;;;;;;4884393;29;20867;-80
2023/07/21 06:32:36;;;;;;;13.43;11.23;;;20.60;90.70;;;;;;4884954;29;20992;-83
2023/07/21 06:35:06;;;;;;;12.13;11.70;;;20.60;91.40;;;;;;4882602;29;20592;-82
2023/07/21 06:37:37;;;;;;;13.40;12.23;;;20.60;90.90;;;;;;4881542;29;20467;-83
2023/07/21 06:40:07;;;;;;;12.80;12.10;;;20.60;90.80;;;;;;4880549;29;20963;-83
2023/07/21 06:42:36;;;;;;;12.00;11.40;;;20.70;90.70;;;;;;4886113;29;20757;-82
2023/07/21 06:45:05;;;;;;;11.63;11.00;;;20.70;90.20;;;;;;4863213;29;20561;-86
2023/07/21 06:47:34;;;;;;;11.00;10.53;;;20.80;89.90;;;;;;4883774;29;20726;-83
2023/07/21 06:50:03;;;;;;;11.90;11.10;;;20.80;90.00;;;;;;4882447;29;20478;-83
2023/07/21 06:52:31;;;;;;;11.93;11.33;;;20.90;90.50;;;;;;4888496;29;20478;-84
2023/07/21 06:55:01;;;;;;;14.13;11.63;;;21.10;93.00;;;;;;4883369;29;20519;-81
2023/07/21 06:57:29;;;;;;;11.43;11.00;;;21.10;91.20;;;;;;4888112;29;20553;-85
2023/07/21 06:59:57;;;;;;;11.30;10.90;;;21.20;97.50;;;;;;4874785;29;20875;-83
2023/07/21 07:02:26;;;;;;;12.10;11.70;;;21.30;91.40;;;;;;4888935;29;20475;-82
2023/07/21 07:04:54;;;;;;;11.67;11.17;;;21.40;91.90;;;;;;4886431;29;21030;-83
2023/07/21 07:07:22;;;;;;;12.03;11.30;;;21.40;92.20;;;;;;4879898;29;20471;-82
2023/07/21 07:09:51;;;;;;;10.60;10.30;;;21.30;92.70;;;;;;4886047;29;20490;-82
2023/07/21 07:12:20;;;;;;;12.77;10.70;;;21.50;93.00;;;;;;4889121;29;20468;-85
2023/07/21 07:14:49;;;;;;;10.87;10.43;;;21.60;90.70;;;;;;4891225;29;20485;-81
2023/07/21 07:17:17;;;;;;;10.53;10.13;;;21.60;90.50;;;;;;4884654;29;20462;-85
2023/07/21 07:19:46;;;;;;;10.30;10.00;;;21.70;90.70;;;;;;4888178;29;20483;-82
2023/07/21 07:22:14;;;;;;;10.67;10.27;;;21.70;91.30;;;;;;4878173;29;20464;-81
2023/07/21 07:24:42;;;;;;;10.97;10.47;;;21.70;90.80;;;;;;4886632;29;21029;-83
2023/07/21 07:27:11;;;;;;;11.20;10.73;;;21.80;90.40;;;;;;4888666;29;20546;-80
2023/07/21 07:29:40;;;;;;;10.60;10.20;;;21.70;90.90;;;;;;4886877;29;20490;-82
2023/07/21 07:32:09;;;;;;;11.20;10.60;;;21.80;91.00;;;;;;4887989;29;20447;-81
2023/07/21 07:34:38;;;;;;;11.57;10.50;;;21.80;90.30;;;;;;4890090;29;20902;-84
2023/07/21 07:37:06;;;;;;;10.30;9.80;;;21.90;90.00;;;;;;4887187;29;20588;-84
2023/07/21 07:39:35;;;;;;;9.97;9.60;;;21.90;89.60;;;;;;4887562;29;20482;-83
2023/07/21 07:42:03;;;;;;;10.63;10.30;;;21.90;91.30;;;;;;4888038;29;20482;-83
2023/07/21 07:44:35;;;;;;;11.00;10.60;;;21.90;90.50;;;;;;4886178;29;20534;-82
2023/07/21 07:47:05;;;;;;;10.07;9.77;;;22.00;90.20;;;;;;4883822;29;20562;-82
2023/07/21 07:49:35;;;;;;;9.90;9.70;;;22.10;90.40;;;;;;4889260;29;20513;-81
2023/07/21 07:52:03;;;;;;;10.60;10.20;;;22.10;89.70;;;;;;4884053;29;20458;-83
2023/07/21 07:54:34;;;;;;;10.00;9.70;;;22.20;90.30;;;;;;4888123;29;21035;-82
2023/07/21 07:57:03;;;;;;;10.17;9.80;;;22.20;90.60;;;;;;4891363;29;20976;-83
2023/07/21 07:59:31;;;;;;;9.93;9.73;;;22.20;89.70;;;;;;4888259;29;20529;-83
2023/07/21 08:01:59;;;;;;;10.27;9.97;;;22.20;90.70;;;;;;4887415;29;20486;-81
2023/07/21 08:04:29;;;;;;;9.63;9.33;;;22.20;91.20;;;;;;4871741;29;20462;-84
2023/07/21 08:06:57;;;;;;;10.10;9.80;;;22.30;92.20;;;;;;4884350;29;21118;-82
2023/07/21 08:09:26;;;;;;;10.87;10.30;;;22.40;90.80;;;;;;4887871;29;20519;-82
2023/07/21 08:11:54;;;;;;;10.40;9.87;;;22.50;92.20;;;;;;4889270;29;21041;-81
2023/07/21 08:14:26;;;;;;;9.90;9.60;;;22.50;93.10;;;;;;4889788;29;20507;-83
2023/07/21 08:16:54;;;;;;;10.23;9.70;;;22.50;92.90;;;;;;4887379;29;20459;-82
2023/07/21 08:19:22;;;;;;;11.03;10.57;;;22.50;91.30;;;;;;4883958;29;20493;-81
2023/07/21 08:21:52;;;;;;;10.40;10.00;;;22.50;90.30;;;;;;4878919;29;21195;-82
2023/07/21 08:24:20;;;;;;;10.00;9.77;;;22.50;98.60;;;;;;4883289;29;20491;-82
2023/07/21 08:26:48;;;;;;;10.67;10.20;;;22.60;91.80;;;;;;4886584;29;20468;-82
2023/07/21 08:29:16;;;;;;;11.27;10.80;;;22.70;91.70;;;;;;4883376;29;20487;-85
2023/07/21 08:31:45;;;;;;;11.00;10.70;;;22.80;92.80;;;;;;4884532;29;20491;-83
2023/07/21 08:34:13;;;;;;;10.20;9.90;;;22.90;93.00;;;;;;4885937;29;20492;-84
2023/07/21 08:36:45;;;;;;;11.20;10.70;;;22.90;93.00;;;;;;4885233;29;20465;-84
2023/07/21 08:39:24;;;;;;;10.53;10.30;;;23.00;92.60;;;;;;4883221;29;20478;-83
2023/07/21 08:41:54;;;;;;;10.67;10.37;;;23.10;91.00;;;;;;4885709;29;20933;-83
2023/07/21 08:44:23;;;;;;;10.53;10.13;;;23.10;91.70;;;;;;4883969;29;20479;-84
2023/07/21 08:46:52;;;;;;;9.70;9.40;;;23.10;90.60;;;;;;4884240;29;20740;-83
2023/07/21 08:49:20;;;;;;;10.27;9.97;;;23.10;89.50;;;;;;4884413;29;20573;-82
2023/07/21 08:51:49;;;;;;;10.83;10.40;;;23.20;88.50;;;;;;4884182;29;20574;-82
2023/07/21 08:54:17;;;;;;;9.67;9.47;;;23.20;87.50;;;;;;4880576;29;20451;-78
2023/07/21 08:56:47;;;;;;;8.97;8.77;;;23.20;83.60;;;;;;4883690;29;20869;-81
2023/07/21 08:59:15;;;;;;;9.80;9.43;;;23.30;81.90;;;;;;4883339;29;20506;-84
2023/07/21 09:01:43;;;;;;;9.57;9.27;;;23.30;82.40;;;;;;4882836;29;20550;-81
2023/07/21 09:04:19;;;;;;;9.47;9.10;;;23.40;82.10;;;;;;4887211;29;20585;-81
2023/07/21 09:06:52;;;;;;;9.50;9.30;;;23.40;82.10;;;;;;4888297;29;20474;-81
2023/07/21 09:09:21;;;;;;;9.77;9.23;;;23.40;77.30;;;;;;4884030;29;21118;-81
2023/07/21 09:11:59;;;;;;;9.70;9.50;;;23.50;80.90;;;;;;4886918;29;20489;-84
2023/07/21 09:14:36;;;;;;;9.40;9.20;;;23.50;85.60;;;;;;4885946;29;20487;-83
2023/07/21 09:17:06;;;;;;;9.70;9.30;;;23.50;83.30;;;;;;4882569;29;20462;-83
2023/07/21 09:19:37;;;;;;;10.23;9.70;;;23.50;81.00;;;;;;4889921;29;20546;-83
2023/07/21 09:22:06;;;;;;;9.60;9.27;;;23.50;76.00;;;;;;4885995;29;20451;-84
2023/07/21 09:24:37;;;;;;;9.50;9.30;;;23.50;80.90;;;;;;4885335;29;20464;-80
2023/07/21 09:27:12;;;;;;;10.37;10.10;;;23.50;78.30;;;;;;4889125;29;20459;-84
2023/07/21 09:29:41;;;;;;;10.13;9.73;;;23.60;81.90;;;;;;4889035;29;20543;-84
2023/07/21 09:32:15;;;;;;;9.77;9.53;;;23.70;80.70;;;;;;4886777;29;20494;-82
2023/07/21 09:34:55;;;;;;;9.70;9.40;;;23.80;83.20;;;;;;4885010;29;20495;-83
2023/07/21 09:37:26;;;;;;;9.50;9.30;;;23.80;86.10;;;;;;4888857;29;20474;-83
2023/07/21 09:39:57;;;;;;;9.77;9.53;;;23.80;84.20;;;;;;4886414;29;20466;-84
2023/07/21 09:42:27;;;;;;;10.33;9.83;;;24.00;81.90;;;;;;4887816;29;20459;-81
2023/07/21 09:44:57;;;;;;;9.67;9.37;;;24.10;83.60;;;;;;4883058;29;20617;-82
2023/07/21 09:47:26;;;;;;;9.90;9.60;;;24.10;83.90;;;;;;4885602;29;20953;-85
2023/07/21 09:49:57;;;;;;;9.60;9.30;;;24.20;82.80;;;;;;4884902;29;22147;-81
2023/07/21 09:52:27;;;;;;;9.43;9.13;;;24.20;81.00;;;;;;4887465;29;20467;-82
2023/07/21 09:55:05;;;;;;;8.77;8.20;;;24.20;83.60;;;;;;4883864;29;21113;-83
2023/07/21 09:57:37;;;;;;;10.10;9.50;;;24.40;81.10;;;;;;4883536;29;20578;-82
2023/07/21 10:00:12;;;;;;;8.40;8.20;;;24.40;81.80;;;;;;4885861;29;20490;-82
2023/07/21 10:02:42;;;;;;;9.33;8.93;;;24.40;80.90;;;;;;4884822;29;20463;-83
2023/07/21 10:05:11;;;;;;;9.23;9.03;;;24.50;83.10;;;;;;4887115;29;20466;-83
2023/07/21 10:07:42;;;;;;;10.17;9.77;;;24.50;83.60;;;;;;4885631;29;20472;-82
2023/07/21 10:10:12;;;;;;;10.03;9.43;;;24.50;83.00;;;;;;4883481;29;20471;-82
2023/07/21 10:12:49;;;;;;;9.50;9.10;;;24.60;83.60;;;;;;4886183;29;20548;-84
2023/07/21 10:15:19;;;;;;;9.20;8.80;;;24.50;81.40;;;;;;4885206;29;20487;-83
2023/07/21 10:17:57;;;;;;;8.90;8.60;;;24.50;80.80;;;;;;4884268;29;20920;-82
2023/07/21 10:20:42;;;;;;;8.90;8.70;;;24.50;82.30;;;;;;4883810;29;20590;-81
2023/07/21 10:23:11;;;;;;;8.87;8.67;;;24.50;82.50;;;;;;4881044;29;20463;-84
2023/07/21 10:25:59;;;;;;;9.30;9.00;;;24.50;81.00;;;;;;4889938;29;20465;-81
2023/07/21 10:28:42;;;;;;;9.40;9.10;;;24.50;80.80;;;;;;4890714;29;20483;-82
2023/07/21 10:31:36;;;;;;;8.80;8.60;;;24.50;79.40;;;;;;4889779;29;20454;-83
2023/07/21 10:34:08;;;;;;;8.77;8.40;;;24.50;76.50;;;;;;4889006;29;20553;-82
2023/07/21 10:36:49;;;;;;;9.40;8.90;;;24.50;77.80;;;;;;4889280;29;20483;-83
2023/07/21 10:39:21;;;;;;;8.90;8.70;;;24.50;79.00;;;;;;4888015;29;20543;-83
2023/07/21 10:41:50;;;;;;;9.00;8.70;;;24.60;80.20;;;;;;4887643;29;20530;-84
2023/07/21 10:44:21;;;;;;;8.07;7.80;;;24.70;77.70;;;;;;4890937;29;20462;-82
2023/07/21 10:46:51;;;;;;;8.80;8.60;;;24.70;79.80;;;;;;4873252;29;20696;-82
2023/07/21 10:49:20;;;;;;;8.10;7.80;;;24.80;80.80;;;;;;4893382;29;20474;-84
2023/07/21 10:51:50;;;;;;;8.20;8.00;;;24.90;79.80;;;;;;4893824;29;20478;-83
2023/07/21 10:54:18;;;;;;;9.30;8.83;;;24.90;82.70;;;;;;4888273;29;20469;-83
2023/07/21 10:56:48;;;;;;;9.13;8.43;;;25.00;85.70;;;;;;4889973;29;20581;-83
2023/07/21 10:59:18;;;;;;;8.77;8.47;;;25.00;85.30;;;;;;4890183;29;21024;-83
2023/07/21 11:01:50;;;;;;;8.90;8.60;;;25.10;83.70;;;;;;4891994;29;20557;-85
2023/07/21 11:04:27;;;;;;;8.10;7.90;;;25.20;86.50;;;;;;4891194;29;20478;-85
2023/07/21 11:06:57;;;;;;;8.70;8.40;;;25.20;85.50;;;;;;4892092;29;20462;-84
2023/07/21 11:09:27;;;;;;;8.40;8.00;;;25.20;82.00;;;;;;4893112;29;20483;-82
2023/07/21 11:11:58;;;;;;;8.20;8.00;;;25.00;75.30;;;;;;4889216;29;20498;-86
2023/07/21 11:14:30;;;;;;;8.00;7.73;;;24.80;76.40;;;;;;4891808;29;20465;-81
2023/07/21 11:17:23;;;;;;;8.40;8.00;;;24.80;75.00;;;;;;4891074;29;21036;-86
2023/07/21 11:19:52;;;;;;;8.63;8.43;;;24.70;73.60;;;;;;4887727;29;20533;-81
2023/07/21 11:22:23;;;;;;;8.27;8.07;;;24.60;70.70;;;;;;4885214;29;20985;-83
2023/07/21 11:25:09;;;;;;;9.33;8.70;;;24.50;69.70;;;;;;4891789;29;20467;-83
2023/07/21 11:27:42;;;;;;;8.83;8.53;;;24.40;69.20;;;;;;4890807;29;20470;-83
2023/07/21 11:30:11;;;;;;;9.07;8.57;;;24.40;70.90;;;;;;4890108;29;20490;-84
2023/07/21 11:32:41;;;;;;;9.30;9.00;;;24.30;68.90;;;;;;4889764;29;20466;-83
2023/07/21 11:35:32;;;;;;;9.03;8.73;;;24.30;69.10;;;;;;4885207;29;20455;-83
2023/07/21 11:42:03;;;;;;;8.60;8.20;;;24.20;67.60;;;;;;4849613;29;20629;-82
2023/07/21 11:44:57;;;;;;;7.70;7.47;;;24.10;66.30;;;;;;4830364;29;20841;-83
2023/07/21 11:47:53;;;;;;;8.20;7.90;;;24.00;64.10;;;;;;4848477;29;20555;-83
2023/07/21 11:50:52;;;;;;;8.20;7.90;;;23.90;63.70;;;;;;4885626;29;20549;-83
2023/07/21 11:53:22;;;;;;;8.40;8.13;;;23.80;61.80;;;;;;4890631;29;20539;-85
2023/07/21 11:56:16;;;;;;;9.83;9.10;;;23.90;68.60;;;;;;4884914;29;20538;-82
2023/07/21 11:59:34;;;;;;;10.90;10.40;;;23.80;83.10;;;;;;4883871;29;20479;-84
2023/07/21 12:02:53;;;;;;;11.43;10.97;;;23.50;96.20;;;;;;4808496;29;20969;-83
2023/07/21 12:05:49;;;;;;;12.30;11.80;;;23.30;99.90;;;;;;4813207;29;20473;-80
2023/07/21 12:11:54;;;;;;;12.70;12.10;;;22.70;99.90;;;;;;4832095;29;20476;-84
2023/07/21 12:14:42;;;;;;;12.23;11.67;;;22.60;99.90;;;;;;4889864;29;20470;-80
2023/07/21 12:20:55;;;;;;;;;;;;;;;;;;;;;
2023/07/21 12:24:59;;;;;;;12.67;12.03;;;22.40;99.90;;;;;;4888166;29;20481;-82
2023/07/21 12:27:54;;;;;;;12.40;12.10;;;22.40;99.90;;;;;;4888092;29;20484;-83
2023/07/21 12:34:38;;;;;;;12.43;12.10;;;22.30;99.90;;;;;;4883741;29;20505;-82
2023/07/21 12:40:39;;;;;;;12.00;11.50;;;22.20;99.90;;;;;;4953911;23;20534;-83
2023/07/21 12:50:48;;;;;;;12.20;11.90;;;22.10;99.90;;;;;;4912762;23;20565;-82
2023/07/21 12:57:10;;;;;;;12.90;12.33;;;22.00;99.90;;;;;;4924061;29;20466;-79
2023/07/21 12:59:49;;;;;;;13.10;12.70;;;22.20;99.90;;;;;;4908979;29;20492;-81
2023/07/21 13:02:43;;;;;;;13.37;12.73;;;22.30;99.90;;;;;;4907547;29;20466;-83
2023/07/21 13:05:18;;;;;;;13.63;13.23;;;22.30;99.90;;;;;;4904153;29;20462;-82
2023/07/21 13:07:52;;;;;;;13.17;12.77;;;22.30;99.90;;;;;;4906130;29;20462;-80
2023/07/21 13:10:26;;;;;;;13.13;12.73;;;22.40;99.90;;;;;;4904396;29;20457;-78
2023/07/21 13:13:03;;;;;;;12.33;11.83;;;22.30;99.90;;;;;;4903141;29;20521;-83
2023/07/21 13:15:49;;;;;;;13.63;12.70;;;22.40;99.90;;;;;;4905039;29;20474;-84
2023/07/21 13:18:17;;;;;;;12.63;12.23;;;22.30;99.90;;;;;;4937403;23;20509;-81
2023/07/21 13:20:46;;;;;;;12.03;11.63;;;22.40;99.90;;;;;;4924187;29;20524;-82
2023/07/21 13:23:38;;;;;;;12.13;11.63;;;22.40;99.90;;;;;;4919291;29;20932;-82
2023/07/21 13:26:09;;;;;;;11.87;11.47;;;22.40;99.90;;;;;;4918794;29;20542;-81
2023/07/21 13:28:41;;;;;;;11.77;11.37;;;22.50;99.90;;;;;;4921794;29;20472;-83
2023/07/21 13:31:25;;;;;;;11.87;11.37;;;22.50;99.90;;;;;;4918884;29;20462;-81
2023/07/21 13:34:09;;;;;;;12.07;11.67;;;22.60;99.90;;;;;;4920443;29;20458;-82